Time;durP1;ratioP1;P1;durP2;ratioP2;P2;SDS_P1;SDS_P2;PMS_P1;PMS_P2;Temp;Humidity;BMP_temperature;BMP_pressure;BME280_temperature;BME280_humidity;BME280_pressure;Samples;Min_cycle;Max_cycle;Signal;HPM_P1;HPM_P2
2022/10/21 00:00:10;;;;;;;;;;;;;;;13.80;100.00;100760.75;5057001;28;19913;-75
2022/10/21 00:02:35;;;;;;;;;;;;;;;13.80;100.00;100756.34;5071783;28;19944;-75
2022/10/21 00:05:00;;;;;;;;;;;;;;;13.81;100.00;100757.22;5056726;28;20258;-75
2022/10/21 00:07:25;;;;;;;;;;;;;;;13.81;100.00;100759.84;5056099;28;19909;-75
2022/10/21 00:09:51;;;;;;;;;;;;;;;13.81;100.00;100749.31;5056937;28;19915;-75
2022/10/21 00:12:16;;;;;;;;;;;;;;;13.80;100.00;100745.81;5056473;28;19905;-74
2022/10/21 00:14:41;;;;;;;;;;;;;;;13.80;100.00;100748.44;5057243;28;19983;-74
2022/10/21 00:17:06;;;;;;;;;;;;;;;13.81;100.00;100744.88;5056653;28;19917;-75
2022/10/21 00:19:32;;;;;;;;;;;;;;;13.80;100.00;100748.44;5055128;28;19919;-75
2022/10/21 00:21:57;;;;;;;;;;;;;;;13.80;100.00;100737.91;5057063;28;19917;-75
2022/10/21 00:24:23;;;;;;;;;;;;;;;13.81;100.00;100730.88;5071018;28;19928;-75
2022/10/21 00:26:48;;;;;;;;;;;;;;;13.81;100.00;100725.63;5056751;28;20078;-74
2022/10/21 00:29:13;;;;;;;;;;;;;;;13.81;100.00;100725.63;5056199;28;19966;-74
2022/10/21 00:31:39;;;;;;;;;;;;;;;13.80;100.00;100724.75;5055209;28;19978;-74
2022/10/21 00:34:04;;;;;;;;;;;;;;;13.81;100.00;100730.88;5072066;28;19920;-75
2022/10/21 00:36:30;;;;;;;;;;;;;;;13.80;100.00;100735.28;5054632;28;20246;-75
2022/10/21 00:38:56;;;;;;;;;;;;;;;13.81;100.00;100736.16;5056553;28;19920;-75
2022/10/21 00:41:21;;;;;;;;;;;;;;;13.79;100.00;100730.13;5056107;28;20191;-75
2022/10/21 00:44:00;;;;;;;;;;;;;;;13.79;100.00;100724.88;5038534;28;20199;-74
2022/10/21 00:46:46;;;;;;;;;;;;;;;13.78;100.00;100723.16;5054769;28;19913;-75
2022/10/21 00:49:17;;;;;;;;;;;;;;;13.77;100.00;100711.78;5055448;28;19946;-75
2022/10/21 00:51:44;;;;;;;;;;;;;;;13.76;100.00;100712.69;5058346;28;19913;-75
2022/10/21 00:54:10;;;;;;;;;;;;;;;13.76;100.00;100707.44;5060468;28;19912;-74
2022/10/21 00:56:35;;;;;;;;;;;;;;;13.76;100.00;100709.22;5075172;28;19989;-74
2022/10/21 00:59:02;;;;;;;;;;;;;;;13.74;100.00;100697.94;5060018;28;19912;-75
2022/10/21 01:01:27;;;;;;;;;;;;;;;13.74;100.00;100692.69;5058116;28;20116;-75
2022/10/21 01:03:52;;;;;;;;;;;;;;;13.73;100.00;100704.13;5059896;28;19913;-75
2022/10/21 01:06:20;;;;;;;;;;;;;;;13.71;100.00;100704.22;5059320;28;20281;-75
2022/10/21 01:08:45;;;;;;;;;;;;;;;13.71;100.00;100693.69;5060062;28;20227;-75
2022/10/21 01:11:13;;;;;;;;;;;;;;;13.70;100.00;100692.00;5059718;28;19936;-74
2022/10/21 01:13:38;;;;;;;;;;;;;;;13.70;100.00;100693.75;5059491;28;19936;-75
2022/10/21 01:16:30;;;;;;;;;;;;;;;13.69;100.00;100698.19;5059906;28;20218;-75
2022/10/21 01:19:02;;;;;;;;;;;;;;;13.68;100.00;100691.25;5042612;28;19912;-75
2022/10/21 01:21:30;;;;;;;;;;;;;;;13.68;100.00;100700.91;5054719;28;19931;-75
2022/10/21 01:23:59;;;;;;;;;;;;;;;13.67;100.00;100691.31;5055325;28;19912;-75
2022/10/21 01:26:35;;;;;;;;;;;;;;;13.66;100.00;100689.63;5057017;28;19943;-75
2022/10/21 01:29:10;;;;;;;;;;;;;;;13.65;100.00;100683.50;5059237;28;19959;-75
2022/10/21 01:31:38;;;;;;;;;;;;;;;13.64;100.00;100684.44;5056926;28;20227;-74
2022/10/21 01:34:03;;;;;;;;;;;;;;;13.63;100.00;100675.69;5062511;28;19915;-75
2022/10/21 01:36:46;;;;;;;;;;;;;;;13.62;100.00;100666.13;5059310;28;19908;-74
2022/10/21 01:39:11;;;;;;;;;;;;;;;13.62;100.00;100676.66;5058805;28;19971;-74
2022/10/21 01:41:47;;;;;;;;;;;;;;;13.61;100.00;100664.41;5059084;28;19917;-75
2022/10/21 01:44:28;;;;;;;;;;;;;;;13.60;100.00;100670.59;5058881;28;19976;-74
2022/10/21 01:46:56;;;;;;;;;;;;;;;13.60;100.00;100669.75;5058924;28;19920;-74
2022/10/21 01:49:28;;;;;;;;;;;;;;;13.59;100.00;100661.03;5058507;28;19913;-75
2022/10/21 01:51:53;;;;;;;;;;;;;;;13.59;100.00;100673.34;5058211;28;19928;-74
2022/10/21 01:54:21;;;;;;;;;;;;;;;13.58;100.00;100671.63;5058675;28;19916;-75
2022/10/21 01:56:47;;;;;;;;;;;;;;;13.57;100.00;100668.16;5058994;28;19913;-74
2022/10/21 01:59:13;;;;;;;;;;;;;;;13.57;100.00;100656.78;5058546;28;19962;-75
2022/10/21 02:01:39;;;;;;;;;;;;;;;13.56;100.00;100655.09;5058890;28;19928;-74
2022/10/21 02:04:05;;;;;;;;;;;;;;;13.54;100.00;100649.06;5047177;28;19924;-74
2022/10/21 02:06:30;;;;;;;;;;;;;;;13.55;100.00;100654.25;5071855;28;20001;-75
2022/10/21 02:08:56;;;;;;;;;;;;;;;13.53;100.00;100644.72;5074374;28;20109;-74
2022/10/21 02:11:21;;;;;;;;;;;;;;;13.52;100.00;100637.78;5057958;28;19940;-75
2022/10/21 02:13:59;;;;;;;;;;;;;;;13.50;100.00;100637.88;5058903;28;19975;-74
2022/10/21 02:16:27;;;;;;;;;;;;;;;13.49;100.00;100636.16;5073373;28;20125;-75
2022/10/21 02:18:53;;;;;;;;;;;;;;;13.49;100.00;100638.78;5058680;28;19946;-74
2022/10/21 02:21:22;;;;;;;;;;;;;;;13.47;100.00;100635.41;5058023;28;19920;-74
2022/10/21 02:23:47;;;;;;;;;;;;;;;13.46;100.00;100630.22;5058807;28;19916;-74
2022/10/21 02:26:12;;;;;;;;;;;;;;;13.45;100.00;100634.63;5057875;28;20170;-74
2022/10/21 02:28:38;;;;;;;;;;;;;;;13.43;100.00;100631.25;5057949;28;19928;-74
2022/10/21 02:31:04;;;;;;;;;;;;;;;13.41;100.00;100626.06;5058718;28;19981;-74
2022/10/21 02:33:52;;;;;;;;;;;;;;;13.40;100.00;100620.91;5059862;28;19916;-74
2022/10/21 02:36:41;;;;;;;;;;;;;;;13.39;100.00;100629.72;5068954;28;19923;-74
2022/10/21 02:39:11;;;;;;;;;;;;;;;13.37;100.00;100624.56;5073681;28;19970;-74
2022/10/21 02:41:37;;;;;;;;;;;;;;;13.35;100.00;100623.78;5073447;28;20090;-74
2022/10/21 02:44:03;;;;;;;;;;;;;;;13.34;100.00;100622.09;5073330;28;19964;-74
2022/10/21 02:46:40;;;;;;;;;;;;;;;13.33;100.00;100630.91;5057253;28;19917;-74
2022/10/21 02:49:05;;;;;;;;;;;;;;;13.32;100.00;100636.28;5057987;28;20128;-74
2022/10/21 02:51:30;;;;;;;;;;;;;;;13.30;100.00;100628.44;5058281;28;19920;-75
2022/10/21 02:53:56;;;;;;;;;;;;;;;13.30;100.00;100624.94;5058030;28;20269;-74
2022/10/21 02:56:21;;;;;;;;;;;;;;;13.28;100.00;100617.16;5057558;28;20105;-73
2022/10/21 02:58:46;;;;;;;;;;;;;;;13.26;100.00;100619.00;5058134;28;20305;-72
2022/10/21 03:01:11;;;;;;;;;;;;;;;13.24;100.00;100621.72;5056362;28;19920;-72
2022/10/21 03:03:37;;;;;;;;;;;;;;;13.23;100.00;100621.81;5057673;28;19924;-72
2022/10/21 03:06:02;;;;;;;;;;;;;;;13.21;100.00;100624.53;5058028;28;19956;-72
2022/10/21 03:08:27;;;;;;;;;;;;;;;13.19;100.00;100623.75;5057210;28;20100;-72
2022/10/21 03:10:53;;;;;;;;;;;;;;;13.18;100.00;100622.03;5057643;28;19936;-72
2022/10/21 03:13:18;;;;;;;;;;;;;;;13.19;100.00;100617.66;5057139;28;19917;-73
2022/10/21 03:15:43;;;;;;;;;;;;;;;13.16;100.00;100618.66;5057855;28;20180;-72
2022/10/21 03:18:08;;;;;;;;;;;;;;;13.15;100.00;100619.59;5056007;28;20147;-72
2022/10/21 03:20:34;;;;;;;;;;;;;;;13.13;100.00;100617.97;5056798;28;19908;-72
2022/10/21 03:22:59;;;;;;;;;;;;;;;13.12;100.00;100622.41;5056135;28;20105;-72
2022/10/21 03:25:24;;;;;;;;;;;;;;;13.11;100.00;100618.06;5057037;28;19916;-72
2022/10/21 03:27:49;;;;;;;;;;;;;;;13.10;100.00;100613.75;5057591;28;19956;-72
2022/10/21 03:30:15;;;;;;;;;;;;;;;13.08;100.00;100607.72;5056864;28;19920;-72
2022/10/21 03:32:40;;;;;;;;;;;;;;;13.07;100.00;100604.22;5055767;28;19931;-72
2022/10/21 03:35:05;;;;;;;;;;;;;;;13.06;100.00;100591.16;5057526;28;19991;-72
2022/10/21 03:37:31;;;;;;;;;;;;;;;13.05;100.00;100592.94;5057041;28;19920;-72
2022/10/21 03:39:56;;;;;;;;;;;;;;;13.04;100.00;100587.78;5057002;28;19913;-72
2022/10/21 03:42:21;;;;;;;;;;;;;;;13.02;100.00;100590.50;5056525;28;19916;-72
2022/10/21 03:44:46;;;;;;;;;;;;;;;13.02;100.00;100587.00;5057373;28;19982;-72
2022/10/21 03:47:12;;;;;;;;;;;;;;;13.01;100.00;100578.28;5056761;28;19909;-72
2022/10/21 03:49:37;;;;;;;;;;;;;;;12.99;100.00;100585.41;5057150;28;19928;-72
2022/10/21 03:52:02;;;;;;;;;;;;;;;12.97;100.00;100579.41;5057385;28;20156;-72
2022/10/21 03:54:28;;;;;;;;;;;;;;;12.97;100.00;100586.41;5055466;28;20125;-72
2022/10/21 03:56:53;;;;;;;;;;;;;;;12.95;100.00;100578.63;5055718;28;19917;-72
2022/10/21 03:59:18;;;;;;;;;;;;;;;12.94;100.00;100586.59;5056468;28;19955;-72
2022/10/21 04:01:43;;;;;;;;;;;;;;;12.92;100.00;100584.06;5056961;28;20109;-72
2022/10/21 04:04:09;;;;;;;;;;;;;;;12.91;100.00;100584.97;5055394;28;20214;-72
2022/10/21 04:06:34;;;;;;;;;;;;;;;12.91;100.00;100584.13;5054898;28;19924;-72
2022/10/21 04:08:59;;;;;;;;;;;;;;;12.90;100.00;100588.53;5055691;28;20142;-72
2022/10/21 04:11:25;;;;;;;;;;;;;;;12.89;100.00;100591.25;5055120;28;19979;-72
2022/10/21 04:13:50;;;;;;;;;;;;;;;12.89;100.00;100607.03;5057154;28;19931;-72
2022/10/21 04:16:17;;;;;;;;;;;;;;;12.87;100.00;100602.69;5056812;28;19944;-72
2022/10/21 04:18:42;;;;;;;;;;;;;;;12.85;100.00;100596.66;5056412;28;20135;-72
2022/10/21 04:21:08;;;;;;;;;;;;;;;12.86;100.00;100605.38;5057322;28;19912;-72
2022/10/21 04:23:33;;;;;;;;;;;;;;;12.85;100.00;100601.09;5056324;28;19919;-72
2022/10/21 04:25:58;;;;;;;;;;;;;;;12.83;100.00;100600.31;5053233;28;19913;-72
2022/10/21 04:28:24;;;;;;;;;;;;;;;12.84;100.00;100599.38;5042462;28;19917;-72
2022/10/21 04:30:49;;;;;;;;;;;;;;;12.82;100.00;100595.97;5060567;28;19913;-72
2022/10/21 04:33:14;;;;;;;;;;;;;;;12.82;100.00;100602.09;5075878;28;19948;-72
2022/10/21 04:35:39;;;;;;;;;;;;;;;12.81;100.00;100605.66;5060431;28;19948;-72
2022/10/21 04:38:05;;;;;;;;;;;;;;;12.80;100.00;100603.94;5060764;28;19923;-72
2022/10/21 04:40:30;;;;;;;;;;;;;;;12.80;100.00;100603.94;5059703;28;20178;-72
2022/10/21 04:42:55;;;;;;;;;;;;;;;12.80;100.00;100600.47;5060465;28;19909;-72
2022/10/21 04:45:21;;;;;;;;;;;;;;;12.79;100.00;100593.53;5059757;28;20148;-72
2022/10/21 04:47:46;;;;;;;;;;;;;;;12.77;100.00;100593.63;5060546;28;19959;-72
2022/10/21 04:50:11;;;;;;;;;;;;;;;12.78;100.00;100599.72;5059842;28;19913;-72
2022/10/21 04:52:37;;;;;;;;;;;;;;;12.77;100.00;100600.63;5060809;28;19913;-72
2022/10/21 04:55:02;;;;;;;;;;;;;;;12.76;100.00;100601.56;5060650;28;20135;-72
2022/10/21 04:57:27;;;;;;;;;;;;;;;12.76;100.00;100593.69;5058811;28;20241;-72
2022/10/21 04:59:53;;;;;;;;;;;;;;;12.76;100.00;100598.94;5060058;28;20054;-72
2022/10/21 05:02:18;;;;;;;;;;;;;;;12.75;100.00;100594.63;5058734;28;19916;-74
2022/10/21 05:04:43;;;;;;;;;;;;;;;12.75;100.00;100608.63;5060039;28;19917;-74
2022/10/21 05:07:08;;;;;;;;;;;;;;;12.74;100.00;100606.91;5075617;28;20167;-74
2022/10/21 05:09:34;;;;;;;;;;;;;;;12.73;100.00;100613.09;5059965;28;20208;-74
2022/10/21 05:11:59;;;;;;;;;;;;;;;12.74;100.00;100603.44;5060081;28;19954;-72
2022/10/21 05:14:25;;;;;;;;;;;;;;;12.73;100.00;100607.81;5074958;28;19965;-72
2022/10/21 05:16:50;;;;;;;;;;;;;;;12.73;100.00;100605.19;5075253;28;19954;-72
2022/10/21 05:19:15;;;;;;;;;;;;;;;12.73;100.00;100599.94;5059448;28;19913;-72
2022/10/21 05:21:40;;;;;;;;;;;;;;;12.73;100.00;100581.56;5059428;28;20112;-73
2022/10/21 05:24:06;;;;;;;;;;;;;;;12.73;100.00;100596.47;5059778;28;20212;-74
2022/10/21 05:26:31;;;;;;;;;;;;;;;12.71;100.00;100596.56;5055421;28;19960;-74
2022/10/21 05:28:57;;;;;;;;;;;;;;;12.71;100.00;100588.66;5075047;28;19943;-72
2022/10/21 05:31:22;;;;;;;;;;;;;;;12.72;100.00;100586.91;5059034;28;19913;-74
2022/10/21 05:33:47;;;;;;;;;;;;;;;12.70;100.00;100589.63;5058357;28;19967;-74
2022/10/21 05:36:12;;;;;;;;;;;;;;;12.71;100.00;100595.72;5074539;28;20129;-74
2022/10/21 05:38:38;;;;;;;;;;;;;;;12.71;100.00;100598.34;5056341;28;19921;-72
2022/10/21 05:41:03;;;;;;;;;;;;;;;12.71;100.00;100595.72;5059266;28;19984;-72
2022/10/21 05:43:28;;;;;;;;;;;;;;;12.71;100.00;100595.72;5058592;28;19928;-72
2022/10/21 05:45:54;;;;;;;;;;;;;;;12.70;100.00;100587.00;5059301;28;19988;-72
2022/10/21 05:48:19;;;;;;;;;;;;;;;12.70;100.00;100586.13;5057140;28;19912;-72
2022/10/21 05:50:45;;;;;;;;;;;;;;;12.69;100.00;100580.03;5059098;28;19917;-72
2022/10/21 05:53:10;;;;;;;;;;;;;;;12.68;100.00;100573.94;5059432;28;20136;-72
2022/10/21 05:55:35;;;;;;;;;;;;;;;12.69;100.00;100577.41;5057221;28;19983;-72
2022/10/21 05:58:01;;;;;;;;;;;;;;;12.69;100.00;100577.41;5058706;28;19924;-72
2022/10/21 06:00:26;;;;;;;;;;;;;;;12.68;100.00;100576.56;5058554;28;19917;-72
2022/10/21 06:02:51;;;;;;;;;;;;;;;12.68;100.00;100584.44;5059004;28;19917;-72
2022/10/21 06:05:17;;;;;;;;;;;;;;;12.67;100.00;100585.34;5058836;28;19940;-72
2022/10/21 06:07:42;;;;;;;;;;;;;;;12.68;100.00;100588.84;5059184;28;19916;-72
2022/10/21 06:10:07;;;;;;;;;;;;;;;12.68;100.00;100591.50;5058901;28;19912;-72
2022/10/21 06:12:33;;;;;;;;;;;;;;;12.68;100.00;100583.59;5058476;28;20427;-72
2022/10/21 06:14:58;;;;;;;;;;;;;;;12.66;100.00;100588.94;5058499;28;19916;-72
2022/10/21 06:17:23;;;;;;;;;;;;;;;12.67;100.00;100589.78;5057885;28;20172;-72
2022/10/21 06:19:49;;;;;;;;;;;;;;;12.66;100.00;100599.44;5073963;28;20022;-72
2022/10/21 06:22:15;;;;;;;;;;;;;;;12.67;100.00;100592.41;5058725;28;19913;-72
2022/10/21 06:24:40;;;;;;;;;;;;;;;12.67;100.00;100595.03;5058229;28;20368;-72
2022/10/21 06:27:05;;;;;;;;;;;;;;;12.66;100.00;100586.31;5058771;28;19990;-72
2022/10/21 06:29:31;;;;;;;;;;;;;;;12.66;100.00;100580.19;5058212;28;19920;-72
2022/10/21 06:31:56;;;;;;;;;;;;;;;12.65;100.00;100573.25;5058592;28;19917;-72
2022/10/21 06:34:21;;;;;;;;;;;;;;;12.66;100.00;100574.94;5065525;28;19920;-72
2022/10/21 06:36:46;;;;;;;;;;;;;;;12.65;100.00;100579.34;5078440;28;20352;-72
2022/10/21 06:39:12;;;;;;;;;;;;;;;12.64;100.00;100572.41;5059996;28;19917;-72
2022/10/21 06:41:37;;;;;;;;;;;;;;;12.65;100.00;100575.88;5039833;28;20193;-72
2022/10/21 06:44:02;;;;;;;;;;;;;;;12.66;100.00;100577.56;5057534;28;19929;-72
2022/10/21 06:46:28;;;;;;;;;;;;;;;12.65;100.00;100578.50;5057037;28;19925;-72
2022/10/21 06:48:53;;;;;;;;;;;;;;;12.65;100.00;100581.97;5057145;28;20200;-72
2022/10/21 06:51:20;;;;;;;;;;;;;;;12.65;100.00;100589.00;5056927;28;19932;-72
2022/10/21 06:53:46;;;;;;;;;;;;;;;12.63;100.00;100583.84;5057265;28;20223;-72
2022/10/21 06:56:13;;;;;;;;;;;;;;;12.64;100.00;100590.81;5057353;28;19911;-72
2022/10/21 06:58:42;;;;;;;;;;;;;;;12.64;100.00;100590.81;5057111;28;19951;-72
2022/10/21 07:01:12;;;;;;;;;;;;;;;12.65;100.00;100589.00;5057939;28;19913;-72
2022/10/21 07:03:37;;;;;;;;;;;;;;;12.64;100.00;100588.16;5058075;28;19931;-72
2022/10/21 07:06:03;;;;;;;;;;;;;;;12.65;100.00;100602.16;5055930;28;19909;-72
2022/10/21 07:08:29;;;;;;;;;;;;;;;12.63;100.00;100596.97;5056271;28;19927;-73
2022/10/21 07:10:54;;;;;;;;;;;;;;;12.65;100.00;100610.03;5056619;28;19939;-72
2022/10/21 07:13:20;;;;;;;;;;;;;;;12.64;100.00;100614.44;5056078;28;19908;-72
2022/10/21 07:15:45;;;;;;;;;;;;;;;12.64;100.00;100621.47;5057004;28;19917;-72
2022/10/21 07:18:10;;;;;;;;;;;;;;;12.64;100.00;100622.31;5056350;28;19983;-72
2022/10/21 07:20:36;;;;;;;;;;;;;;;12.63;100.00;100633.75;5049671;28;19920;-72
2022/10/21 07:23:01;;;;;;;;;;;;;;;12.63;100.00;100636.38;5056827;28;20015;-73
2022/10/21 07:25:26;;;;;;;;;;;;;;;12.64;100.00;100643.34;5055024;28;19925;-74
2022/10/21 07:27:52;;;;;;;;;;;;;;;12.64;100.00;100640.72;5055846;28;20120;-72
2022/10/21 07:30:17;;;;;;;;;;;;;;;12.65;100.00;100652.06;5057001;28;20255;-72
2022/10/21 07:32:42;;;;;;;;;;;;;;;12.65;100.00;100641.56;5057724;28;19924;-72
2022/10/21 07:35:08;;;;;;;;;;;;;;;12.64;100.00;100647.72;5072857;28;19984;-72
2022/10/21 07:37:33;;;;;;;;;;;;;;;12.64;100.00;100643.34;5054861;28;20112;-72
2022/10/21 07:39:58;;;;;;;;;;;;;;;12.65;100.00;100639.78;5057031;28;19921;-72
2022/10/21 07:42:24;;;;;;;;;;;;;;;12.65;100.00;100637.16;5054229;28;19948;-72
2022/10/21 07:44:52;;;;;;;;;;;;;;;12.66;100.00;100640.63;5056359;28;19938;-72
2022/10/21 07:47:17;;;;;;;;;;;;;;;12.65;100.00;100646.81;5055165;28;20230;-72
2022/10/21 07:49:43;;;;;;;;;;;;;;;12.65;100.00;100652.91;5056249;28;19917;-72
2022/10/21 07:52:08;;;;;;;;;;;;;;;12.67;100.00;100663.34;5056320;28;19913;-72
2022/10/21 07:54:33;;;;;;;;;;;;;;;12.67;100.00;100663.34;5050697;28;20107;-72
2022/10/21 07:56:58;;;;;;;;;;;;;;;12.67;100.00;100655.47;5055230;28;19917;-72
2022/10/21 07:59:24;;;;;;;;;;;;;;;12.66;100.00;100646.72;5055778;28;19958;-72
2022/10/21 08:01:51;;;;;;;;;;;;;;;12.67;100.00;100652.84;5062914;28;19909;-72
2022/10/21 08:04:17;;;;;;;;;;;;;;;12.67;100.00;100655.47;5057010;28;19954;-72
2022/10/21 08:06:43;;;;;;;;;;;;;;;12.67;100.00;100645.78;5061784;28;20474;-72
2022/10/21 08:09:09;;;;;;;;;;;;;;;12.68;100.00;100644.88;5055951;28;20003;-72
2022/10/21 08:11:34;;;;;;;;;;;;;;;12.69;100.00;100645.72;5053805;28;19947;-72
2022/10/21 08:14:00;;;;;;;;;;;;;;;12.68;100.00;100649.28;5055854;28;19944;-72
2022/10/21 08:16:25;;;;;;;;;;;;;;;12.68;100.00;100644.88;5054659;28;20207;-72
2022/10/21 08:18:51;;;;;;;;;;;;;;;12.70;100.00;100643.94;5054842;28;20174;-72
2022/10/21 08:21:16;;;;;;;;;;;;;;;12.70;100.00;100642.16;5054721;28;19987;-72
2022/10/21 08:23:42;;;;;;;;;;;;;;;12.71;100.00;100646.47;5055536;28;19928;-72
2022/10/21 08:26:10;;;;;;;;;;;;;;;12.71;100.00;100645.63;5056390;28;19932;-72
2022/10/21 08:28:35;;;;;;;;;;;;;;;12.73;100.00;100651.66;5055519;28;20222;-72
2022/10/21 08:31:20;;;;;;;;;;;;;;;12.74;100.00;100658.63;5053419;28;19908;-72
2022/10/21 08:33:45;;;;;;;;;;;;;;;12.74;100.00;100667.34;5071065;28;19920;-72
2022/10/21 08:36:15;;;;;;;;;;;;;;;12.75;100.00;100665.56;5056471;28;20115;-72
2022/10/21 08:38:40;;;;;;;;;;;;;;;12.76;100.00;100669.91;5052999;28;20073;-72
2022/10/21 08:41:24;;;;;;;;;;;;;;;12.77;100.00;100668.94;5055870;28;19917;-72
2022/10/21 08:43:51;;;;;;;;;;;;;;;12.78;100.00;100663.63;5054479;28;19923;-72
2022/10/21 08:46:19;;;;;;;;;;;;;;;12.80;100.00;100655.66;5055465;28;19996;-72
2022/10/21 08:48:48;;;;;;;;;;;;;;;12.82;100.00;100643.28;5056090;28;19904;-72
2022/10/21 08:51:27;;;;;;;;;;;;;;;12.83;100.00;100643.22;5055512;28;20180;-72
2022/10/21 08:53:57;;;;;;;;;;;;;;;12.85;100.00;100651.84;5053115;28;19912;-72
2022/10/21 08:56:23;;;;;;;;;;;;;;;12.86;100.00;100645.69;5053735;28;20123;-72
2022/10/21 08:58:50;;;;;;;;;;;;;;;12.89;100.00;100651.69;5055544;28;20123;-72
2022/10/21 09:01:35;;;;;;;;;;;;;;;12.91;100.00;100655.94;5053963;28;20210;-72
2022/10/21 09:04:09;;;;;;;;;;;;;;;12.93;100.00;100645.34;5054760;28;19915;-72
2022/10/21 09:06:42;;;;;;;;;;;;;;;12.97;100.00;100644.25;5053188;28;19916;-72
2022/10/21 09:09:08;;;;;;;;;;;;;;;12.99;100.00;100643.25;5044367;28;19927;-72
2022/10/21 09:11:45;;;;;;;;;;;;;;;13.02;100.00;100643.09;5047100;28;19921;-72
2022/10/21 09:14:13;;;;;;;;;;;;;;;13.03;100.00;100652.66;5043251;28;19916;-73
2022/10/21 09:16:50;;;;;;;;;;;;;;;13.06;100.00;100651.63;5072722;28;19927;-72
2022/10/21 09:19:44;;;;;;;;;;;;;;;13.07;100.00;100656.81;5056463;28;20225;-72
2022/10/21 09:22:20;;;;;;;;;;;;;;;13.11;100.00;100657.50;5056784;28;20135;-73
2022/10/21 09:24:51;;;;;;;;;;;;;;;13.14;100.00;100667.84;5055911;28;19909;-73
2022/10/21 09:27:16;;;;;;;;;;;;;;;13.16;100.00;100671.25;5058172;28;19947;-72
2022/10/21 09:29:43;;;;;;;;;;;;;;;13.18;100.00;100669.38;5058488;28;19925;-72
2022/10/21 09:32:22;;;;;;;;;;;;;;;13.19;100.00;100657.94;5059851;28;19955;-72
2022/10/21 09:34:56;;;;;;;;;;;;;;;13.22;100.00;100662.16;5060461;28;19946;-72
2022/10/21 09:37:25;;;;;;;;;;;;;;;13.24;100.00;100663.81;5056265;28;19984;-73
2022/10/21 09:39:56;;;;;;;;;;;;;;;13.28;100.00;100666.25;5081282;28;19923;-73
2022/10/21 09:42:22;;;;;;;;;;;;;;;13.31;100.00;100663.50;5061601;28;19923;-72
2022/10/21 09:44:47;;;;;;;;;;;;;;;13.35;100.00;100665.00;5058541;28;19956;-72
2022/10/21 09:47:23;;;;;;;;;;;;;;;13.38;100.00;100665.69;5057095;28;20054;-73
2022/10/21 09:49:55;;;;;;;;;;;;;;;13.40;100.00;100661.19;5057787;28;19940;-73
2022/10/21 09:52:21;;;;;;;;;;;;;;;13.44;100.00;100669.75;5058294;28;19922;-73
2022/10/21 09:54:47;;;;;;;;;;;;;;;13.46;100.00;100670.50;5061691;28;19908;-73
2022/10/21 09:57:30;;;;;;;;;;;;;;;13.50;100.00;100661.53;5057788;28;19912;-73
2022/10/21 09:59:59;;;;;;;;;;;;;;;13.55;100.00;100664.78;5057624;28;20127;-73
2022/10/21 10:02:27;;;;;;;;;;;;;;;13.58;100.00;100653.22;5057112;28;20008;-73
2022/10/21 10:04:53;;;;;;;;;;;;;;;13.58;100.00;100661.94;5057389;28;20223;-73
2022/10/21 10:07:24;;;;;;;;;;;;;;;13.62;100.00;100662.63;5057316;28;19913;-73
2022/10/21 10:09:49;;;;;;;;;;;;;;;13.63;100.00;100659.06;5057094;28;19954;-73
2022/10/21 10:12:19;;;;;;;;;;;;;;;13.65;100.00;100659.00;5063101;28;19921;-72
2022/10/21 10:14:44;;;;;;;;;;;;;;;13.68;100.00;100650.91;5057764;28;19948;-73
2022/10/21 10:17:28;;;;;;;;;;;;;;;13.71;100.00;100648.94;5057860;28;19983;-73
2022/10/21 10:20:03;;;;;;;;;;;;;;;13.76;100.00;100653.97;5057312;28;19916;-73
2022/10/21 10:22:44;;;;;;;;;;;;;;;13.81;100.00;100652.75;5073064;28;20163;-73
2022/10/21 10:25:23;;;;;;;;;;;;;;;13.85;100.00;100663.13;5056656;28;19921;-72
2022/10/21 10:27:52;;;;;;;;;;;;;;;13.86;100.00;100655.16;5057891;28;19912;-73
2022/10/21 10:30:18;;;;;;;;;;;;;;;13.91;100.00;100660.97;5057075;28;19924;-73
2022/10/21 10:32:44;;;;;;;;;;;;;;;13.94;100.00;100662.59;5056263;28;20138;-73
2022/10/21 10:35:30;;;;;;;;;;;;;;;13.98;100.00;100680.75;5057902;28;19916;-73
2022/10/21 10:37:57;;;;;;;;;;;;;;;14.02;100.00;100674.38;5057952;28;19972;-73
2022/10/21 10:40:31;;;;;;;;;;;;;;;14.08;100.00;100674.94;5056190;28;19912;-72
2022/10/21 10:43:18;;;;;;;;;;;;;;;14.11;100.00;100672.13;5056981;28;20128;-73
2022/10/21 10:45:56;;;;;;;;;;;;;;;14.18;100.00;100670.84;5071248;28;19924;-73
2022/10/21 10:48:33;;;;;;;;;;;;;;;14.23;100.00;100676.69;5057246;28;20239;-73
2022/10/21 10:50:58;;;;;;;;;;;;;;;14.26;100.00;100684.44;5057228;28;20269;-73
2022/10/21 10:53:32;;;;;;;;;;;;;;;14.28;100.00;100677.28;5075275;28;19920;-73
2022/10/21 10:56:05;;;;;;;;;;;;;;;14.32;100.00;100676.16;5057486;28;19923;-73
2022/10/21 10:58:32;;;;;;;;;;;;;;;14.35;100.00;100672.47;5057482;28;20182;-73
2022/10/21 11:00:59;;;;;;;;;;;;;;;14.38;100.00;100672.31;5057609;28;19917;-73
2022/10/21 11:03:47;;;;;;;;;;;;;;;14.40;100.00;100676.53;5058496;28;20235;-73
2022/10/21 11:06:15;;;;;;;;;;;;;;;14.47;100.00;100668.28;5053854;28;19921;-73
2022/10/21 11:08:42;;;;;;;;;;;;;;;14.51;100.00;100667.16;5056947;28;19912;-73
2022/10/21 11:11:21;;;;;;;;;;;;;;;14.53;100.00;100670.53;5057515;28;19936;-73
2022/10/21 11:13:46;;;;;;;;;;;;;;;14.53;100.00;100668.75;5056323;28;19987;-73
2022/10/21 11:16:11;;;;;;;;;;;;;;;14.55;100.00;100666.03;5071049;28;20212;-73
2022/10/21 11:18:42;;;;;;;;;;;;;;;14.58;100.00;100665.88;5065508;28;19987;-73
2022/10/21 11:21:10;;;;;;;;;;;;;;;14.61;100.00;100673.63;5063185;28;19958;-73
2022/10/21 11:23:44;;;;;;;;;;;;;;;14.63;100.00;100671.72;5056116;28;19923;-73
2022/10/21 11:26:28;;;;;;;;;;;;;;;14.65;100.00;100669.84;5060479;28;20176;-73
2022/10/21 11:29:22;;;;;;;;;;;;;;;14.70;100.00;100682.75;5069512;28;19911;-73
2022/10/21 11:31:56;;;;;;;;;;;;;;;14.71;100.00;100669.47;5019073;28;19918;-73
2022/10/21 11:34:25;;;;;;;;;;;;;;;14.74;100.00;100669.28;5058588;28;20395;-73
2022/10/21 11:37:09;;;;;;;;;;;;;;;14.78;100.00;100673.44;5059360;28;19927;-73
2022/10/21 11:39:40;;;;;;;;;;;;;;;14.81;100.00;100663.63;5065827;28;19904;-73
2022/10/21 11:42:11;;;;;;;;;;;;;;;14.84;100.00;100666.94;5049040;28;20242;-73
2022/10/21 11:44:39;;;;;;;;;;;;;;;14.85;100.00;100658.09;5054305;28;20245;-73
2022/10/21 11:47:23;;;;;;;;;;;;;;;14.89;100.00;100658.75;5054452;28;19963;-73
2022/10/21 11:50:01;;;;;;;;;;;;;;;14.92;100.00;100662.03;5053099;28;20100;-73
2022/10/21 11:52:45;;;;;;;;;;;;;;;14.95;100.00;100667.13;5055917;28;20013;-73
2022/10/21 11:55:16;;;;;;;;;;;;;;;14.97;100.00;100673.16;5056226;28;20201;-73
2022/10/21 11:57:47;;;;;;;;;;;;;;;15.00;100.00;100677.38;5056228;28;19944;-73
2022/10/21 12:00:16;;;;;;;;;;;;;;;15.03;100.00;100676.38;5054182;28;20181;-73
2022/10/21 12:03:00;;;;;;;;;;;;;;;15.06;100.00;100679.66;5058611;28;20119;-73
2022/10/21 12:05:36;;;;;;;;;;;;;;;15.12;100.00;100673.16;5064137;28;20387;-73
2022/10/21 12:08:13;;;;;;;;;;;;;;;15.16;100.00;100672.00;5061605;28;19917;-73
2022/10/21 12:10:39;;;;;;;;;;;;;;;15.22;100.00;100676.06;5056332;28;19912;-73
2022/10/21 12:13:24;;;;;;;;;;;;;;;15.24;100.00;100671.53;5056269;28;20108;-73
2022/10/21 12:15:52;;;;;;;;;;;;;;;15.25;100.00;100666.16;5055053;28;19927;-73
2022/10/21 12:18:20;;;;;;;;;;;;;;;15.27;100.00;100677.47;5055797;28;20101;-73
2022/10/21 12:20:47;;;;;;;;;;;;;;;15.31;100.00;100671.03;5062391;28;19917;-73
2022/10/21 12:23:16;;;;;;;;;;;;;;;15.34;100.00;100680.56;5063287;28;19940;-73
2022/10/21 12:26:01;;;;;;;;;;;;;;;15.35;100.00;100667.28;5055874;28;19913;-73
2022/10/21 12:28:36;;;;;;;;;;;;;;;15.36;100.00;100676.03;5056287;28;19950;-73
2022/10/21 12:31:11;;;;;;;;;;;;;;;15.36;100.00;100661.03;5063105;28;19916;-73
2022/10/21 12:33:42;;;;;;;;;;;;;;;15.38;100.00;100674.13;5062013;28;19915;-73